sensor_id;sensor_type;location;lat;lon;timestamp;P1;durP1;ratioP1;P2;durP2;ratioP2
9496;SDS011;4786;51.270;4.456;2022-08-19T00:01:51;6.90;;;6.30;;
9496;SDS011;4786;51.270;4.456;2022-08-19T00:04:22;9.85;;;6.78;;
9496;SDS011;4786;51.270;4.456;2022-08-19T00:06:50;7.20;;;6.50;;
9496;SDS011;4786;51.270;4.456;2022-08-19T00:09:17;7.57;;;6.90;;
9496;SDS011;4786;51.270;4.456;2022-08-19T00:11:44;7.37;;;6.67;;
9496;SDS011;4786;51.270;4.456;2022-08-19T00:14:11;7.70;;;7.00;;
9496;SDS011;4786;51.270;4.456;2022-08-19T00:16:39;8.17;;;7.47;;
9496;SDS011;4786;51.270;4.456;2022-08-19T00:19:07;8.40;;;7.70;;
9496;SDS011;4786;51.270;4.456;2022-08-19T00:21:33;7.90;;;7.20;;
9496;SDS011;4786;51.270;4.456;2022-08-19T00:24:05;7.70;;;6.93;;
9496;SDS011;4786;51.270;4.456;2022-08-19T00:26:34;7.53;;;6.88;;
9496;SDS011;4786;51.270;4.456;2022-08-19T00:29:05;7.60;;;6.87;;
9496;SDS011;4786;51.270;4.456;2022-08-19T00:31:33;8.00;;;7.30;;
9496;SDS011;4786;51.270;4.456;2022-08-19T00:33:59;8.88;;;8.13;;
9496;SDS011;4786;51.270;4.456;2022-08-19T00:36:25;10.03;;;9.13;;
9496;SDS011;4786;51.270;4.456;2022-08-19T00:38:51;9.40;;;8.60;;
9496;SDS011;4786;51.270;4.456;2022-08-19T00:41:19;10.68;;;9.77;;
9496;SDS011;4786;51.270;4.456;2022-08-19T00:46:27;12.20;;;11.13;;
9496;SDS011;4786;51.270;4.456;2022-08-19T00:48:53;12.50;;;11.20;;
9496;SDS011;4786;51.270;4.456;2022-08-19T00:51:21;11.33;;;9.97;;
9496;SDS011;4786;51.270;4.456;2022-08-19T00:53:48;11.43;;;10.32;;
9496;SDS011;4786;51.270;4.456;2022-08-19T00:56:14;10.30;;;9.40;;
9496;SDS011;4786;51.270;4.456;2022-08-19T00:58:41;11.57;;;10.60;;
9496;SDS011;4786;51.270;4.456;2022-08-19T01:01:07;12.50;;;11.50;;
9496;SDS011;4786;51.270;4.456;2022-08-19T01:03:33;14.43;;;11.57;;
9496;SDS011;4786;51.270;4.456;2022-08-19T01:05:59;11.53;;;10.53;;
9496;SDS011;4786;51.270;4.456;2022-08-19T01:08:25;12.52;;;11.43;;
9496;SDS011;4786;51.270;4.456;2022-08-19T01:10:53;13.00;;;11.80;;
9496;SDS011;4786;51.270;4.456;2022-08-19T01:13:25;13.77;;;12.50;;
9496;SDS011;4786;51.270;4.456;2022-08-19T01:15:56;13.55;;;12.38;;
9496;SDS011;4786;51.270;4.456;2022-08-19T01:18:28;16.48;;;14.88;;
9496;SDS011;4786;51.270;4.456;2022-08-19T01:20:56;16.73;;;15.13;;
9496;SDS011;4786;51.270;4.456;2022-08-19T01:23:27;18.17;;;16.42;;
9496;SDS011;4786;51.270;4.456;2022-08-19T01:26:08;19.53;;;17.70;;
9496;SDS011;4786;51.270;4.456;2022-08-19T01:28:36;19.65;;;17.65;;
9496;SDS011;4786;51.270;4.456;2022-08-19T01:31:02;20.67;;;18.77;;
9496;SDS011;4786;51.270;4.456;2022-08-19T01:33:28;20.77;;;18.67;;
9496;SDS011;4786;51.270;4.456;2022-08-19T01:36:03;22.53;;;20.23;;
9496;SDS011;4786;51.270;4.456;2022-08-19T01:38:41;32.33;;;28.93;;
9496;SDS011;4786;51.270;4.456;2022-08-19T01:41:09;30.93;;;27.83;;
9496;SDS011;4786;51.270;4.456;2022-08-19T01:43:37;30.43;;;27.23;;
9496;SDS011;4786;51.270;4.456;2022-08-19T01:46:04;35.05;;;30.08;;
9496;SDS011;4786;51.270;4.456;2022-08-19T01:48:38;31.80;;;28.60;;
9496;SDS011;4786;51.270;4.456;2022-08-19T01:51:06;35.67;;;31.87;;
9496;SDS011;4786;51.270;4.456;2022-08-19T01:53:33;33.95;;;30.55;;
9496;SDS011;4786;51.270;4.456;2022-08-19T01:56:00;35.03;;;31.17;;
9496;SDS011;4786;51.270;4.456;2022-08-19T01:58:29;34.00;;;30.50;;
9496;SDS011;4786;51.270;4.456;2022-08-19T02:00:58;32.80;;;29.50;;
9496;SDS011;4786;51.270;4.456;2022-08-19T02:03:24;36.03;;;32.23;;
9496;SDS011;4786;51.270;4.456;2022-08-19T02:06:00;38.30;;;34.17;;
9496;SDS011;4786;51.270;4.456;2022-08-19T02:08:28;38.00;;;33.95;;
9496;SDS011;4786;51.270;4.456;2022-08-19T02:10:55;34.17;;;30.97;;
9496;SDS011;4786;51.270;4.456;2022-08-19T02:13:21;36.45;;;32.92;;
9496;SDS011;4786;51.270;4.456;2022-08-19T02:15:48;34.65;;;31.33;;
9496;SDS011;4786;51.270;4.456;2022-08-19T02:18:14;34.43;;;31.03;;
9496;SDS011;4786;51.270;4.456;2022-08-19T02:20:41;34.53;;;31.13;;
9496;SDS011;4786;51.270;4.456;2022-08-19T02:23:08;32.43;;;29.23;;
9496;SDS011;4786;51.270;4.456;2022-08-19T02:25:36;33.13;;;29.93;;
9496;SDS011;4786;51.270;4.456;2022-08-19T02:28:04;33.00;;;29.27;;
9496;SDS011;4786;51.270;4.456;2022-08-19T02:30:30;30.67;;;27.77;;
9496;SDS011;4786;51.270;4.456;2022-08-19T02:32:56;30.47;;;27.57;;
9496;SDS011;4786;51.270;4.456;2022-08-19T02:35:23;31.70;;;28.37;;
9496;SDS011;4786;51.270;4.456;2022-08-19T02:37:49;29.75;;;26.55;;
9496;SDS011;4786;51.270;4.456;2022-08-19T02:40:34;33.80;;;30.43;;
9496;SDS011;4786;51.270;4.456;2022-08-19T02:43:06;31.50;;;27.10;;
9496;SDS011;4786;51.270;4.456;2022-08-19T02:45:34;31.90;;;28.70;;
9496;SDS011;4786;51.270;4.456;2022-08-19T02:48:02;29.30;;;26.13;;
9496;SDS011;4786;51.270;4.456;2022-08-19T02:50:29;28.97;;;26.00;;
9496;SDS011;4786;51.270;4.456;2022-08-19T02:52:55;29.70;;;26.80;;
9496;SDS011;4786;51.270;4.456;2022-08-19T02:55:20;29.00;;;26.10;;
9496;SDS011;4786;51.270;4.456;2022-08-19T02:57:46;27.40;;;24.50;;
9496;SDS011;4786;51.270;4.456;2022-08-19T03:00:13;25.90;;;23.20;;
9496;SDS011;4786;51.270;4.456;2022-08-19T03:02:39;25.67;;;23.20;;
9496;SDS011;4786;51.270;4.456;2022-08-19T03:05:06;27.67;;;24.93;;
9496;SDS011;4786;51.270;4.456;2022-08-19T03:07:33;29.00;;;26.10;;
9496;SDS011;4786;51.270;4.456;2022-08-19T03:09:59;30.13;;;25.10;;
9496;SDS011;4786;51.270;4.456;2022-08-19T03:12:25;28.47;;;25.47;;
9496;SDS011;4786;51.270;4.456;2022-08-19T03:14:52;24.97;;;22.37;;
9496;SDS011;4786;51.270;4.456;2022-08-19T03:17:17;26.40;;;23.63;;
9496;SDS011;4786;51.270;4.456;2022-08-19T03:19:44;26.97;;;24.13;;
9496;SDS011;4786;51.270;4.456;2022-08-19T03:22:10;24.40;;;21.90;;
9496;SDS011;4786;51.270;4.456;2022-08-19T03:24:36;26.20;;;23.50;;
9496;SDS011;4786;51.270;4.456;2022-08-19T03:27:02;24.83;;;22.23;;
9496;SDS011;4786;51.270;4.456;2022-08-19T03:29:30;26.30;;;23.67;;
9496;SDS011;4786;51.270;4.456;2022-08-19T03:32:00;26.23;;;23.43;;
9496;SDS011;4786;51.270;4.456;2022-08-19T03:34:28;27.33;;;24.63;;
9496;SDS011;4786;51.270;4.456;2022-08-19T03:36:56;25.87;;;23.27;;
9496;SDS011;4786;51.270;4.456;2022-08-19T03:39:26;25.77;;;22.60;;
9496;SDS011;4786;51.270;4.456;2022-08-19T03:41:53;29.03;;;25.87;;
9496;SDS011;4786;51.270;4.456;2022-08-19T03:44:22;29.00;;;24.80;;
9496;SDS011;4786;51.270;4.456;2022-08-19T03:46:50;26.50;;;23.63;;
9496;SDS011;4786;51.270;4.456;2022-08-19T03:49:17;25.33;;;21.93;;
9496;SDS011;4786;51.270;4.456;2022-08-19T03:51:45;24.93;;;22.40;;
9496;SDS011;4786;51.270;4.456;2022-08-19T03:54:13;25.23;;;22.20;;
9496;SDS011;4786;51.270;4.456;2022-08-19T03:56:42;26.17;;;22.20;;
9496;SDS011;4786;51.270;4.456;2022-08-19T03:59:11;26.33;;;23.53;;
9496;SDS011;4786;51.270;4.456;2022-08-19T04:01:40;25.53;;;21.63;;
9496;SDS011;4786;51.270;4.456;2022-08-19T04:04:06;24.73;;;22.23;;
9496;SDS011;4786;51.270;4.456;2022-08-19T04:06:33;24.70;;;22.10;;
9496;SDS011;4786;51.270;4.456;2022-08-19T04:09:03;23.30;;;20.80;;
9496;SDS011;4786;51.270;4.456;2022-08-19T04:11:33;23.93;;;21.37;;
9496;SDS011;4786;51.270;4.456;2022-08-19T04:14:06;24.60;;;22.03;;
9496;SDS011;4786;51.270;4.456;2022-08-19T04:16:33;23.53;;;21.13;;
9496;SDS011;4786;51.270;4.456;2022-08-19T04:18:59;26.57;;;22.20;;
9496;SDS011;4786;51.270;4.456;2022-08-19T04:21:27;25.30;;;22.60;;
9496;SDS011;4786;51.270;4.456;2022-08-19T04:23:53;23.00;;;20.70;;
9496;SDS011;4786;51.270;4.456;2022-08-19T04:26:22;22.70;;;20.40;;
9496;SDS011;4786;51.270;4.456;2022-08-19T04:28:51;22.97;;;20.57;;
9496;SDS011;4786;51.270;4.456;2022-08-19T04:31:18;25.37;;;21.63;;
9496;SDS011;4786;51.270;4.456;2022-08-19T04:33:55;21.87;;;19.27;;
9496;SDS011;4786;51.270;4.456;2022-08-19T04:36:26;23.90;;;20.10;;
9496;SDS011;4786;51.270;4.456;2022-08-19T04:38:55;21.87;;;19.57;;
9496;SDS011;4786;51.270;4.456;2022-08-19T04:41:22;23.07;;;19.87;;
9496;SDS011;4786;51.270;4.456;2022-08-19T04:44:06;21.87;;;19.50;;
9496;SDS011;4786;51.270;4.456;2022-08-19T04:46:33;20.13;;;18.00;;
9496;SDS011;4786;51.270;4.456;2022-08-19T04:49:00;23.23;;;18.90;;
9496;SDS011;4786;51.270;4.456;2022-08-19T04:51:28;20.97;;;18.37;;
9496;SDS011;4786;51.270;4.456;2022-08-19T04:53:56;23.73;;;19.40;;
9496;SDS011;4786;51.270;4.456;2022-08-19T04:56:22;21.43;;;19.30;;
9496;SDS011;4786;51.270;4.456;2022-08-19T04:58:51;21.10;;;18.90;;
9496;SDS011;4786;51.270;4.456;2022-08-19T05:01:18;23.03;;;19.23;;
9496;SDS011;4786;51.270;4.456;2022-08-19T05:03:53;20.77;;;17.90;;
9496;SDS011;4786;51.270;4.456;2022-08-19T05:06:20;24.30;;;19.07;;
9496;SDS011;4786;51.270;4.456;2022-08-19T05:08:48;20.57;;;17.83;;
9496;SDS011;4786;51.270;4.456;2022-08-19T05:11:19;19.20;;;17.20;;
9496;SDS011;4786;51.270;4.456;2022-08-19T05:13:49;21.17;;;17.23;;
9496;SDS011;4786;51.270;4.456;2022-08-19T05:16:16;22.87;;;18.53;;
9496;SDS011;4786;51.270;4.456;2022-08-19T05:18:43;20.10;;;17.03;;
9496;SDS011;4786;51.270;4.456;2022-08-19T05:21:28;19.70;;;17.70;;
9496;SDS011;4786;51.270;4.456;2022-08-19T05:24:13;20.23;;;16.70;;
9496;SDS011;4786;51.270;4.456;2022-08-19T05:26:41;19.73;;;16.77;;
9496;SDS011;4786;51.270;4.456;2022-08-19T05:29:11;18.70;;;16.70;;
9496;SDS011;4786;51.270;4.456;2022-08-19T05:31:38;20.03;;;16.80;;
9496;SDS011;4786;51.270;4.456;2022-08-19T05:34:04;20.40;;;16.70;;
9496;SDS011;4786;51.270;4.456;2022-08-19T05:36:35;19.33;;;16.83;;
9496;SDS011;4786;51.270;4.456;2022-08-19T05:39:13;18.00;;;14.90;;
9496;SDS011;4786;51.270;4.456;2022-08-19T05:41:43;18.43;;;15.40;;
9496;SDS011;4786;51.270;4.456;2022-08-19T05:44:14;20.37;;;15.53;;
9496;SDS011;4786;51.270;4.456;2022-08-19T05:46:40;20.57;;;14.50;;
9496;SDS011;4786;51.270;4.456;2022-08-19T05:49:09;16.17;;;13.87;;
9496;SDS011;4786;51.270;4.456;2022-08-19T05:51:35;24.17;;;14.83;;
9496;SDS011;4786;51.270;4.456;2022-08-19T05:54:04;17.67;;;13.87;;
9496;SDS011;4786;51.270;4.456;2022-08-19T05:56:32;18.37;;;13.27;;
9496;SDS011;4786;51.270;4.456;2022-08-19T05:59:02;16.95;;;12.52;;
9496;SDS011;4786;51.270;4.456;2022-08-19T06:01:29;14.70;;;12.48;;
9496;SDS011;4786;51.270;4.456;2022-08-19T06:03:54;12.68;;;10.75;;
9496;SDS011;4786;51.270;4.456;2022-08-19T06:06:21;16.10;;;11.38;;
9496;SDS011;4786;51.270;4.456;2022-08-19T06:08:47;14.70;;;11.68;;
9496;SDS011;4786;51.270;4.456;2022-08-19T06:11:35;12.15;;;8.77;;
9496;SDS011;4786;51.270;4.456;2022-08-19T06:14:14;12.18;;;9.40;;
9496;SDS011;4786;51.270;4.456;2022-08-19T06:16:42;14.15;;;9.43;;
9496;SDS011;4786;51.270;4.456;2022-08-19T06:19:10;14.30;;;9.73;;
9496;SDS011;4786;51.270;4.456;2022-08-19T06:21:39;13.98;;;9.98;;
9496;SDS011;4786;51.270;4.456;2022-08-19T06:24:07;10.90;;;8.85;;
9496;SDS011;4786;51.270;4.456;2022-08-19T06:26:36;14.38;;;9.95;;
9496;SDS011;4786;51.270;4.456;2022-08-19T06:29:03;14.70;;;10.32;;
9496;SDS011;4786;51.270;4.456;2022-08-19T06:31:31;15.57;;;10.52;;
9496;SDS011;4786;51.270;4.456;2022-08-19T06:33:59;12.38;;;9.57;;
9496;SDS011;4786;51.270;4.456;2022-08-19T06:36:30;13.32;;;10.60;;
9496;SDS011;4786;51.270;4.456;2022-08-19T06:39:03;13.18;;;9.90;;
9496;SDS011;4786;51.270;4.456;2022-08-19T06:41:32;21.55;;;11.25;;
9496;SDS011;4786;51.270;4.456;2022-08-19T06:44:01;20.40;;;13.00;;
9496;SDS011;4786;51.270;4.456;2022-08-19T06:46:27;17.02;;;12.55;;
9496;SDS011;4786;51.270;4.456;2022-08-19T06:48:53;17.60;;;13.18;;
9496;SDS011;4786;51.270;4.456;2022-08-19T06:51:19;20.45;;;13.90;;
9496;SDS011;4786;51.270;4.456;2022-08-19T06:53:46;17.02;;;12.63;;
9496;SDS011;4786;51.270;4.456;2022-08-19T06:56:14;17.25;;;11.90;;
9496;SDS011;4786;51.270;4.456;2022-08-19T06:58:41;16.40;;;13.23;;
9496;SDS011;4786;51.270;4.456;2022-08-19T07:01:07;22.40;;;13.90;;
9496;SDS011;4786;51.270;4.456;2022-08-19T07:03:34;22.73;;;15.82;;
9496;SDS011;4786;51.270;4.456;2022-08-19T07:06:05;20.90;;;13.73;;
9496;SDS011;4786;51.270;4.456;2022-08-19T07:08:34;24.88;;;13.90;;
9496;SDS011;4786;51.270;4.456;2022-08-19T07:11:02;19.95;;;13.27;;
9496;SDS011;4786;51.270;4.456;2022-08-19T07:13:32;19.98;;;13.57;;
9496;SDS011;4786;51.270;4.456;2022-08-19T07:16:11;21.50;;;14.30;;
9496;SDS011;4786;51.270;4.456;2022-08-19T07:18:39;19.20;;;14.30;;
9496;SDS011;4786;51.270;4.456;2022-08-19T07:21:07;17.77;;;14.07;;
9496;SDS011;4786;51.270;4.456;2022-08-19T07:23:34;21.70;;;15.02;;
9496;SDS011;4786;51.270;4.456;2022-08-19T07:26:07;22.00;;;14.70;;
9496;SDS011;4786;51.270;4.456;2022-08-19T07:28:36;20.42;;;14.05;;
9496;SDS011;4786;51.270;4.456;2022-08-19T07:31:04;17.65;;;13.00;;
9496;SDS011;4786;51.270;4.456;2022-08-19T07:33:32;17.73;;;14.13;;
9496;SDS011;4786;51.270;4.456;2022-08-19T07:35:59;18.33;;;13.15;;
9496;SDS011;4786;51.270;4.456;2022-08-19T07:38:24;21.85;;;16.02;;
9496;SDS011;4786;51.270;4.456;2022-08-19T07:40:51;18.52;;;15.23;;
9496;SDS011;4786;51.270;4.456;2022-08-19T07:43:17;18.33;;;14.63;;
9496;SDS011;4786;51.270;4.456;2022-08-19T07:45:47;17.00;;;14.15;;
9496;SDS011;4786;51.270;4.456;2022-08-19T07:48:14;18.58;;;13.77;;
9496;SDS011;4786;51.270;4.456;2022-08-19T07:50:40;15.60;;;12.98;;
9496;SDS011;4786;51.270;4.456;2022-08-19T07:53:06;14.90;;;12.95;;
9496;SDS011;4786;51.270;4.456;2022-08-19T07:55:32;13.52;;;12.02;;
9496;SDS011;4786;51.270;4.456;2022-08-19T07:57:58;16.17;;;12.35;;
9496;SDS011;4786;51.270;4.456;2022-08-19T08:00:24;13.23;;;11.77;;
9496;SDS011;4786;51.270;4.456;2022-08-19T08:02:51;15.80;;;14.00;;
9496;SDS011;4786;51.270;4.456;2022-08-19T08:05:18;14.00;;;12.50;;
9496;SDS011;4786;51.270;4.456;2022-08-19T08:08:02;18.88;;;14.95;;
9496;SDS011;4786;51.270;4.456;2022-08-19T08:10:58;17.63;;;15.52;;
9496;SDS011;4786;51.270;4.456;2022-08-19T08:13:25;18.77;;;15.18;;
9496;SDS011;4786;51.270;4.456;2022-08-19T08:15:52;23.67;;;17.73;;
9496;SDS011;4786;51.270;4.456;2022-08-19T08:18:18;18.42;;;16.52;;
9496;SDS011;4786;51.270;4.456;2022-08-19T08:20:45;18.20;;;16.10;;
9496;SDS011;4786;51.270;4.456;2022-08-19T08:23:11;17.27;;;15.38;;
9496;SDS011;4786;51.270;4.456;2022-08-19T08:25:55;18.88;;;15.93;;
9496;SDS011;4786;51.270;4.456;2022-08-19T08:28:22;18.75;;;16.52;;
9496;SDS011;4786;51.270;4.456;2022-08-19T08:30:50;19.05;;;16.52;;
9496;SDS011;4786;51.270;4.456;2022-08-19T08:33:17;15.10;;;13.25;;
9496;SDS011;4786;51.270;4.456;2022-08-19T08:35:49;17.08;;;13.80;;
9496;SDS011;4786;51.270;4.456;2022-08-19T08:38:15;16.55;;;13.55;;
9496;SDS011;4786;51.270;4.456;2022-08-19T08:45:59;17.42;;;14.50;;
9496;SDS011;4786;51.270;4.456;2022-08-19T08:51:02;19.08;;;14.75;;
9496;SDS011;4786;51.270;4.456;2022-08-19T08:53:32;20.30;;;17.42;;
9496;SDS011;4786;51.270;4.456;2022-08-19T08:56:01;20.02;;;16.80;;
9496;SDS011;4786;51.270;4.456;2022-08-19T08:58:39;16.92;;;15.13;;
9496;SDS011;4786;51.270;4.456;2022-08-19T09:01:11;17.65;;;15.00;;
9496;SDS011;4786;51.270;4.456;2022-08-19T09:03:41;18.80;;;14.57;;
9496;SDS011;4786;51.270;4.456;2022-08-19T09:06:18;16.58;;;14.30;;
9496;SDS011;4786;51.270;4.456;2022-08-19T09:09:11;17.25;;;13.85;;
9496;SDS011;4786;51.270;4.456;2022-08-19T09:14:51;23.52;;;19.05;;
9496;SDS011;4786;51.270;4.456;2022-08-19T09:17:19;23.13;;;16.98;;
9496;SDS011;4786;51.270;4.456;2022-08-19T09:19:53;18.63;;;15.50;;
9496;SDS011;4786;51.270;4.456;2022-08-19T09:22:22;16.23;;;14.07;;
9496;SDS011;4786;51.270;4.456;2022-08-19T09:24:49;15.52;;;13.93;;
9496;SDS011;4786;51.270;4.456;2022-08-19T09:27:17;14.48;;;13.07;;
9496;SDS011;4786;51.270;4.456;2022-08-19T09:29:49;14.25;;;12.85;;
9496;SDS011;4786;51.270;4.456;2022-08-19T09:32:16;17.33;;;13.70;;
9496;SDS011;4786;51.270;4.456;2022-08-19T09:34:43;14.50;;;12.23;;
9496;SDS011;4786;51.270;4.456;2022-08-19T09:37:09;14.35;;;11.95;;
9496;SDS011;4786;51.270;4.456;2022-08-19T09:39:37;15.05;;;13.50;;
9496;SDS011;4786;51.270;4.456;2022-08-19T09:42:04;17.00;;;15.25;;
9496;SDS011;4786;51.270;4.456;2022-08-19T09:44:33;17.35;;;15.35;;
9496;SDS011;4786;51.270;4.456;2022-08-19T09:46:59;19.85;;;16.20;;
9496;SDS011;4786;51.270;4.456;2022-08-19T09:49:25;18.75;;;15.95;;
9496;SDS011;4786;51.270;4.456;2022-08-19T09:51:51;16.83;;;15.23;;
9496;SDS011;4786;51.270;4.456;2022-08-19T09:54:21;19.55;;;17.50;;
9496;SDS011;4786;51.270;4.456;2022-08-19T09:56:47;21.15;;;18.95;;
9496;SDS011;4786;51.270;4.456;2022-08-19T09:59:13;25.63;;;21.85;;
9496;SDS011;4786;51.270;4.456;2022-08-19T10:01:40;27.77;;;24.90;;
9496;SDS011;4786;51.270;4.456;2022-08-19T10:04:06;26.42;;;23.70;;
9496;SDS011;4786;51.270;4.456;2022-08-19T10:06:36;23.88;;;21.27;;
9496;SDS011;4786;51.270;4.456;2022-08-19T10:09:05;22.05;;;19.95;;
9496;SDS011;4786;51.270;4.456;2022-08-19T10:11:33;21.45;;;17.83;;
9496;SDS011;4786;51.270;4.456;2022-08-19T10:14:00;19.40;;;17.38;;
9496;SDS011;4786;51.270;4.456;2022-08-19T10:16:27;21.52;;;19.23;;
9496;SDS011;4786;51.270;4.456;2022-08-19T10:18:54;23.20;;;17.90;;
9496;SDS011;4786;51.270;4.456;2022-08-19T10:21:24;21.95;;;18.63;;
9496;SDS011;4786;51.270;4.456;2022-08-19T10:23:53;19.73;;;17.63;;
9496;SDS011;4786;51.270;4.456;2022-08-19T10:26:23;16.42;;;14.82;;
9496;SDS011;4786;51.270;4.456;2022-08-19T10:28:51;16.30;;;13.20;;
9496;SDS011;4786;51.270;4.456;2022-08-19T10:31:18;15.25;;;13.65;;
9496;SDS011;4786;51.270;4.456;2022-08-19T10:33:53;13.07;;;11.68;;
9496;SDS011;4786;51.270;4.456;2022-08-19T10:36:23;14.43;;;12.93;;
9496;SDS011;4786;51.270;4.456;2022-08-19T10:38:52;18.20;;;14.32;;
9496;SDS011;4786;51.270;4.456;2022-08-19T10:41:22;15.23;;;13.32;;
9496;SDS011;4786;51.270;4.456;2022-08-19T10:43:56;13.73;;;12.35;;
9496;SDS011;4786;51.270;4.456;2022-08-19T10:46:24;14.70;;;12.63;;
9496;SDS011;4786;51.270;4.456;2022-08-19T10:48:52;17.27;;;13.50;;
9496;SDS011;4786;51.270;4.456;2022-08-19T10:51:18;16.50;;;12.77;;
9496;SDS011;4786;51.270;4.456;2022-08-19T10:54:02;16.65;;;13.27;;
9496;SDS011;4786;51.270;4.456;2022-08-19T10:56:28;18.60;;;14.45;;
9496;SDS011;4786;51.270;4.456;2022-08-19T10:59:13;14.80;;;12.10;;
9496;SDS011;4786;51.270;4.456;2022-08-19T11:01:42;15.13;;;13.15;;
9496;SDS011;4786;51.270;4.456;2022-08-19T11:04:09;17.38;;;15.68;;
9496;SDS011;4786;51.270;4.456;2022-08-19T11:06:39;16.63;;;14.55;;
9496;SDS011;4786;51.270;4.456;2022-08-19T11:09:06;17.63;;;14.27;;
9496;SDS011;4786;51.270;4.456;2022-08-19T11:11:33;15.75;;;14.07;;
9496;SDS011;4786;51.270;4.456;2022-08-19T11:14:09;15.63;;;13.60;;
9496;SDS011;4786;51.270;4.456;2022-08-19T11:16:38;16.95;;;13.23;;
9496;SDS011;4786;51.270;4.456;2022-08-19T11:19:07;15.73;;;13.13;;
9496;SDS011;4786;51.270;4.456;2022-08-19T11:21:36;14.98;;;12.82;;
9496;SDS011;4786;51.270;4.456;2022-08-19T11:24:05;16.77;;;12.50;;
9496;SDS011;4786;51.270;4.456;2022-08-19T11:26:39;14.50;;;12.65;;
9496;SDS011;4786;51.270;4.456;2022-08-19T11:29:07;15.75;;;13.43;;
9496;SDS011;4786;51.270;4.456;2022-08-19T11:31:43;16.58;;;13.88;;
9496;SDS011;4786;51.270;4.456;2022-08-19T11:34:11;15.05;;;13.32;;
9496;SDS011;4786;51.270;4.456;2022-08-19T11:36:41;13.68;;;11.45;;
9496;SDS011;4786;51.270;4.456;2022-08-19T11:39:10;17.42;;;13.65;;
9496;SDS011;4786;51.270;4.456;2022-08-19T11:41:38;15.27;;;12.27;;
9496;SDS011;4786;51.270;4.456;2022-08-19T11:44:04;12.77;;;11.02;;
9496;SDS011;4786;51.270;4.456;2022-08-19T11:46:32;13.60;;;10.90;;
9496;SDS011;4786;51.270;4.456;2022-08-19T11:49:00;14.48;;;11.88;;
9496;SDS011;4786;51.270;4.456;2022-08-19T11:51:28;14.23;;;12.05;;
9496;SDS011;4786;51.270;4.456;2022-08-19T11:53:55;12.48;;;11.15;;
9496;SDS011;4786;51.270;4.456;2022-08-19T11:56:23;14.40;;;10.25;;
9496;SDS011;4786;51.270;4.456;2022-08-19T11:58:50;10.88;;;9.77;;
9496;SDS011;4786;51.270;4.456;2022-08-19T12:01:18;10.50;;;9.50;;
9496;SDS011;4786;51.270;4.456;2022-08-19T12:03:46;10.63;;;9.55;;
9496;SDS011;4786;51.270;4.456;2022-08-19T12:06:15;10.52;;;9.48;;
9496;SDS011;4786;51.270;4.456;2022-08-19T12:08:44;10.73;;;9.10;;
9496;SDS011;4786;51.270;4.456;2022-08-19T12:11:10;9.88;;;8.80;;
9496;SDS011;4786;51.270;4.456;2022-08-19T12:13:38;9.20;;;7.47;;
9496;SDS011;4786;51.270;4.456;2022-08-19T12:16:11;8.63;;;6.80;;
9496;SDS011;4786;51.270;4.456;2022-08-19T12:18:40;8.80;;;7.78;;
9496;SDS011;4786;51.270;4.456;2022-08-19T12:21:08;9.80;;;8.02;;
9496;SDS011;4786;51.270;4.456;2022-08-19T12:23:36;7.90;;;7.10;;
9496;SDS011;4786;51.270;4.456;2022-08-19T12:26:02;7.35;;;6.65;;
9496;SDS011;4786;51.270;4.456;2022-08-19T12:28:29;8.98;;;6.55;;
9496;SDS011;4786;51.270;4.456;2022-08-19T12:30:55;6.43;;;5.80;;
9496;SDS011;4786;51.270;4.456;2022-08-19T12:33:21;6.25;;;4.93;;
9496;SDS011;4786;51.270;4.456;2022-08-19T12:35:50;5.18;;;4.25;;
9496;SDS011;4786;51.270;4.456;2022-08-19T12:38:16;5.47;;;4.50;;
9496;SDS011;4786;51.270;4.456;2022-08-19T12:40:46;4.05;;;3.75;;
9496;SDS011;4786;51.270;4.456;2022-08-19T12:43:13;7.43;;;4.25;;
9496;SDS011;4786;51.270;4.456;2022-08-19T12:45:40;5.95;;;4.88;;
9496;SDS011;4786;51.270;4.456;2022-08-19T12:48:07;5.38;;;4.40;;
9496;SDS011;4786;51.270;4.456;2022-08-19T12:50:33;9.50;;;5.90;;
9496;SDS011;4786;51.270;4.456;2022-08-19T12:53:00;5.15;;;4.57;;
9496;SDS011;4786;51.270;4.456;2022-08-19T12:55:25;4.10;;;3.80;;
9496;SDS011;4786;51.270;4.456;2022-08-19T12:57:53;6.57;;;5.30;;
9496;SDS011;4786;51.270;4.456;2022-08-19T13:00:19;5.90;;;4.57;;
9496;SDS011;4786;51.270;4.456;2022-08-19T13:02:47;4.55;;;4.15;;
9496;SDS011;4786;51.270;4.456;2022-08-19T13:05:17;4.60;;;4.20;;
9496;SDS011;4786;51.270;4.456;2022-08-19T13:07:46;5.55;;;4.35;;
9496;SDS011;4786;51.270;4.456;2022-08-19T13:10:13;5.35;;;4.03;;
9496;SDS011;4786;51.270;4.456;2022-08-19T13:12:42;5.85;;;4.03;;
9496;SDS011;4786;51.270;4.456;2022-08-19T13:15:10;4.40;;;3.30;;
9496;SDS011;4786;51.270;4.456;2022-08-19T13:17:38;4.53;;;3.53;;
9496;SDS011;4786;51.270;4.456;2022-08-19T13:20:05;7.38;;;4.13;;
9496;SDS011;4786;51.270;4.456;2022-08-19T13:22:35;4.65;;;4.25;;
9496;SDS011;4786;51.270;4.456;2022-08-19T13:25:02;5.07;;;3.75;;
9496;SDS011;4786;51.270;4.456;2022-08-19T13:27:30;5.97;;;3.80;;
9496;SDS011;4786;51.270;4.456;2022-08-19T13:29:56;6.35;;;4.00;;
9496;SDS011;4786;51.270;4.456;2022-08-19T13:32:40;3.30;;;3.00;;
9496;SDS011;4786;51.270;4.456;2022-08-19T13:35:25;5.90;;;3.30;;
9496;SDS011;4786;51.270;4.456;2022-08-19T13:37:50;3.47;;;2.95;;
9496;SDS011;4786;51.270;4.456;2022-08-19T13:40:18;5.05;;;3.05;;
9496;SDS011;4786;51.270;4.456;2022-08-19T13:42:48;2.83;;;2.58;;
9496;SDS011;4786;51.270;4.456;2022-08-19T13:45:16;3.78;;;2.72;;
9496;SDS011;4786;51.270;4.456;2022-08-19T13:47:48;4.35;;;2.70;;
9496;SDS011;4786;51.270;4.456;2022-08-19T13:50:16;3.55;;;2.60;;
9496;SDS011;4786;51.270;4.456;2022-08-19T13:52:44;6.65;;;2.63;;
9496;SDS011;4786;51.270;4.456;2022-08-19T13:55:10;4.75;;;2.38;;
9496;SDS011;4786;51.270;4.456;2022-08-19T13:57:37;4.07;;;3.00;;
9496;SDS011;4786;51.270;4.456;2022-08-19T14:00:10;5.15;;;2.38;;
9496;SDS011;4786;51.270;4.456;2022-08-19T14:02:40;3.58;;;2.17;;
9496;SDS011;4786;51.270;4.456;2022-08-19T14:05:08;3.30;;;2.58;;
9496;SDS011;4786;51.270;4.456;2022-08-19T14:07:35;3.42;;;2.00;;
9496;SDS011;4786;51.270;4.456;2022-08-19T14:10:01;4.45;;;2.20;;
9496;SDS011;4786;51.270;4.456;2022-08-19T14:12:29;3.38;;;2.38;;
9496;SDS011;4786;51.270;4.456;2022-08-19T14:14:57;2.75;;;2.28;;
9496;SDS011;4786;51.270;4.456;2022-08-19T14:17:23;2.92;;;2.20;;
9496;SDS011;4786;51.270;4.456;2022-08-19T14:19:49;3.95;;;2.20;;
9496;SDS011;4786;51.270;4.456;2022-08-19T14:22:21;4.13;;;2.60;;
9496;SDS011;4786;51.270;4.456;2022-08-19T14:24:47;4.00;;;2.60;;
9496;SDS011;4786;51.270;4.456;2022-08-19T14:27:13;4.25;;;2.53;;
9496;SDS011;4786;51.270;4.456;2022-08-19T14:29:39;4.68;;;2.50;;
9496;SDS011;4786;51.270;4.456;2022-08-19T14:32:05;4.97;;;2.40;;
9496;SDS011;4786;51.270;4.456;2022-08-19T14:34:32;3.03;;;2.30;;
9496;SDS011;4786;51.270;4.456;2022-08-19T14:36:58;2.28;;;2.08;;
9496;SDS011;4786;51.270;4.456;2022-08-19T14:39:25;3.53;;;2.10;;
9496;SDS011;4786;51.270;4.456;2022-08-19T14:41:51;2.65;;;2.20;;
9496;SDS011;4786;51.270;4.456;2022-08-19T14:44:16;2.90;;;2.10;;
9496;SDS011;4786;51.270;4.456;2022-08-19T14:46:43;5.43;;;2.50;;
9496;SDS011;4786;51.270;4.456;2022-08-19T14:49:10;4.63;;;2.50;;
9496;SDS011;4786;51.270;4.456;2022-08-19T14:51:35;8.27;;;2.30;;
9496;SDS011;4786;51.270;4.456;2022-08-19T14:54:02;7.80;;;1.98;;
9496;SDS011;4786;51.270;4.456;2022-08-19T14:56:28;4.93;;;1.60;;
9496;SDS011;4786;51.270;4.456;2022-08-19T14:58:55;10.23;;;2.33;;
9496;SDS011;4786;51.270;4.456;2022-08-19T15:01:24;5.43;;;1.88;;
9496;SDS011;4786;51.270;4.456;2022-08-19T15:03:50;9.07;;;1.92;;
9496;SDS011;4786;51.270;4.456;2022-08-19T15:06:18;6.07;;;1.60;;
9496;SDS011;4786;51.270;4.456;2022-08-19T15:08:43;4.35;;;2.00;;
9496;SDS011;4786;51.270;4.456;2022-08-19T15:11:13;8.20;;;2.50;;
9496;SDS011;4786;51.270;4.456;2022-08-19T15:13:41;11.73;;;3.80;;
9496;SDS011;4786;51.270;4.456;2022-08-19T15:16:09;10.25;;;3.72;;
9496;SDS011;4786;51.270;4.456;2022-08-19T15:18:35;5.93;;;3.00;;